createdAt,value
2018-01-08T01:37:21.659Z,1031.86
2018-01-08T01:37:22.225Z,1031.85
2018-01-08T01:37:22.830Z,1031.85
2018-01-08T01:37:23.423Z,1031.85
2018-01-08T01:37:24.023Z,1031.84
2018-01-08T01:37:24.666Z,1031.82
2018-01-08T01:37:25.225Z,1031.84
2018-01-08T01:37:25.821Z,1031.81
2018-01-08T01:38:20.304Z,1031.86
2018-01-08T01:38:20.903Z,1031.85
2018-01-08T01:38:21.500Z,1031.84
2018-01-08T01:38:22.100Z,1031.85
2018-01-08T01:38:22.699Z,1031.79
2018-01-08T01:38:23.300Z,1031.87
2018-01-08T01:38:23.898Z,1031.86
2018-01-08T01:38:24.498Z,1031.82
2018-01-08T01:39:18.982Z,1031.83
2018-01-08T01:39:19.577Z,1031.84
2018-01-08T01:39:20.176Z,1031.83
2018-01-08T01:39:20.774Z,1031.82
2018-01-08T01:39:21.374Z,1031.79
2018-01-08T01:39:21.974Z,1031.82
2018-01-08T01:39:22.572Z,1031.82
2018-01-08T01:39:23.172Z,1031.76
2018-01-08T01:40:16.633Z,1031.80
2018-01-08T01:40:17.229Z,1031.77
2018-01-08T01:40:17.828Z,1031.78
2018-01-08T01:40:18.428Z,1031.76
2018-01-08T01:40:19.028Z,1031.79
2018-01-08T01:40:19.628Z,1031.79
2018-01-08T01:40:20.243Z,1031.75
2018-01-08T01:40:20.829Z,1031.77
2018-01-08T01:41:14.285Z,1031.87
2018-01-08T01:41:14.881Z,1031.81
2018-01-08T01:41:15.479Z,1031.82
2018-01-08T01:41:16.081Z,1031.79
2018-01-08T01:41:16.680Z,1031.83
2018-01-08T01:41:17.280Z,1031.82
2018-01-08T01:41:17.881Z,1031.80
2018-01-08T01:41:18.479Z,1031.82
2018-01-08T01:42:12.961Z,1031.84
2018-01-08T01:42:13.557Z,1031.81
2018-01-08T01:42:14.156Z,1031.85
2018-01-08T01:42:14.757Z,1031.81
2018-01-08T01:42:15.356Z,1031.84
2018-01-08T01:42:15.955Z,1031.80
2018-01-08T01:42:16.555Z,1031.83
2018-01-08T01:42:17.155Z,1031.82
2018-01-08T01:43:10.649Z,1031.81
2018-01-08T01:43:11.209Z,1031.81
2018-01-08T01:43:11.809Z,1031.82
2018-01-08T01:43:12.410Z,1031.77
2018-01-08T01:43:13.009Z,1031.79
2018-01-08T01:43:13.608Z,1031.80
2018-01-08T01:43:14.208Z,1031.78
2018-01-08T01:43:14.811Z,1031.78
2018-01-08T01:44:09.289Z,1031.83
2018-01-08T01:44:09.885Z,1031.81
2018-01-08T01:44:10.485Z,1031.79
2018-01-08T01:44:11.084Z,1031.81
2018-01-08T01:44:11.684Z,1031.83
2018-01-08T01:44:12.285Z,1031.84
2018-01-08T01:44:12.883Z,1031.83
2018-01-08T01:44:13.484Z,1031.84
2018-01-08T01:45:07.965Z,1031.81
2018-01-08T01:45:08.563Z,1031.83
2018-01-08T01:45:09.160Z,1031.80
2018-01-08T01:45:09.762Z,1031.83
2018-01-08T01:45:10.360Z,1031.83
2018-01-08T01:45:10.959Z,1031.84
2018-01-08T01:45:11.563Z,1031.81
2018-01-08T01:45:12.160Z,1031.81
2018-01-08T01:46:06.639Z,1031.76
2018-01-08T01:46:07.236Z,1031.82
2018-01-08T01:46:07.836Z,1031.82
2018-01-08T01:46:08.435Z,1031.81
2018-01-08T01:46:09.035Z,1031.82
2018-01-08T01:46:09.635Z,1031.83
2018-01-08T01:46:10.235Z,1031.82
2018-01-08T01:46:10.835Z,1031.83
2018-01-08T01:47:05.315Z,1031.84
2018-01-08T01:47:05.913Z,1031.78
2018-01-08T01:47:06.512Z,1031.82
2018-01-08T01:47:07.112Z,1031.77
2018-01-08T01:47:07.714Z,1031.83
2018-01-08T01:47:08.313Z,1031.77
2018-01-08T01:47:08.911Z,1031.76
2018-01-08T01:47:09.514Z,1031.74
2018-01-08T01:48:03.990Z,1031.78
2018-01-08T01:48:04.588Z,1031.80
2018-01-08T01:48:05.188Z,1031.77
2018-01-08T01:48:05.789Z,1031.78
2018-01-08T01:48:06.390Z,1031.79
2018-01-08T01:48:06.992Z,1031.79
2018-01-08T01:48:07.587Z,1031.73
2018-01-08T01:48:08.189Z,1031.72
2018-01-08T01:49:01.724Z,1031.76
2018-01-08T01:49:02.241Z,1031.76
2018-01-08T01:49:02.840Z,1031.74
2018-01-08T01:49:03.439Z,1031.78
2018-01-08T01:49:04.040Z,1031.78
2018-01-08T01:49:04.643Z,1031.75
2018-01-08T01:49:05.241Z,1031.77
2018-01-08T01:49:05.840Z,1031.75
2018-01-08T01:49:59.296Z,1031.78
2018-01-08T01:49:59.894Z,1031.75
2018-01-08T01:50:00.491Z,1031.72
2018-01-08T01:50:01.094Z,1031.72
2018-01-08T01:50:01.692Z,1031.75
2018-01-08T01:50:02.290Z,1031.78
2018-01-08T01:50:02.891Z,1031.79
2018-01-08T01:50:03.492Z,1031.79
2018-01-08T01:50:56.947Z,1031.74
2018-01-08T01:50:57.545Z,1031.79
2018-01-08T01:50:58.145Z,1031.75
2018-01-08T01:50:58.745Z,1031.73
2018-01-08T01:50:59.344Z,1031.74
2018-01-08T01:50:59.944Z,1031.74
2018-01-08T01:51:00.550Z,1031.77
2018-01-08T01:51:01.143Z,1031.72
2018-01-08T01:51:55.623Z,1031.75
2018-01-08T01:51:56.220Z,1031.72
2018-01-08T01:51:56.819Z,1031.73
2018-01-08T01:51:57.418Z,1031.72
2018-01-08T01:51:58.018Z,1031.76
2018-01-08T01:51:58.621Z,1031.74
2018-01-08T01:51:59.217Z,1031.72
2018-01-08T01:51:59.818Z,1031.79
2018-01-08T01:52:53.276Z,1031.78
2018-01-08T01:52:53.871Z,1031.76
2018-01-08T01:52:54.471Z,1031.78
2018-01-08T01:52:55.073Z,1031.77
2018-01-08T01:52:55.671Z,1031.81
2018-01-08T01:52:56.271Z,1031.78
2018-01-08T01:52:56.872Z,1031.80
2018-01-08T01:52:57.473Z,1031.77
2018-01-08T01:53:51.948Z,1031.81
2018-01-08T01:53:52.547Z,1031.79
2018-01-08T01:53:53.146Z,1031.77
2018-01-08T01:53:53.746Z,1031.74
2018-01-08T01:53:54.346Z,1031.77
2018-01-08T01:53:54.946Z,1031.78
2018-01-08T01:53:55.545Z,1031.77
2018-01-08T01:53:56.144Z,1031.80
2018-01-08T01:54:50.658Z,1031.83
2018-01-08T01:54:51.223Z,1031.81
2018-01-08T01:54:51.821Z,1031.83
2018-01-08T01:54:52.424Z,1031.82
2018-01-08T01:54:53.021Z,1031.81
2018-01-08T01:54:53.621Z,1031.81
2018-01-08T01:54:54.220Z,1031.79
2018-01-08T01:54:54.822Z,1031.80
2018-01-08T01:55:48.282Z,1031.82
2018-01-08T01:55:48.873Z,1031.82
2018-01-08T01:55:49.473Z,1031.79
2018-01-08T01:55:50.074Z,1031.82
2018-01-08T01:55:50.672Z,1031.77
2018-01-08T01:55:51.272Z,1031.83
2018-01-08T01:55:51.875Z,1031.83
2018-01-08T01:55:52.473Z,1031.83
2018-01-08T01:56:46.954Z,1031.87
2018-01-08T01:56:47.550Z,1031.86
2018-01-08T01:56:48.150Z,1031.84
2018-01-08T01:56:48.749Z,1031.86
2018-01-08T01:56:49.350Z,1031.87
2018-01-08T01:56:49.949Z,1031.82
2018-01-08T01:56:50.550Z,1031.81
2018-01-08T01:56:51.151Z,1031.83
2018-01-08T01:57:45.628Z,1031.88
2018-01-08T01:57:46.224Z,1031.90
2018-01-08T01:57:46.824Z,1031.87
2018-01-08T01:57:47.424Z,1031.88
2018-01-08T01:57:48.024Z,1031.88
2018-01-08T01:57:48.624Z,1031.88
2018-01-08T01:57:49.227Z,1031.85
2018-01-08T01:57:49.824Z,1031.88
2018-01-08T01:58:43.281Z,1031.91
2018-01-08T01:58:43.877Z,1031.87
2018-01-08T01:58:44.477Z,1031.91
2018-01-08T01:58:45.076Z,1031.89
2018-01-08T01:58:45.677Z,1031.89
2018-01-08T01:58:46.276Z,1031.86
2018-01-08T01:58:46.876Z,1031.83
2018-01-08T01:58:47.476Z,1031.86
2018-01-08T01:59:41.954Z,1031.90
2018-01-08T01:59:42.553Z,1031.88
2018-01-08T01:59:43.152Z,1031.87
2018-01-08T01:59:43.756Z,1031.86
2018-01-08T01:59:44.352Z,1031.87
2018-01-08T01:59:44.951Z,1031.87
2018-01-08T01:59:45.553Z,1031.85
2018-01-08T01:59:46.155Z,1031.87
2018-01-08T02:00:40.663Z,1031.90
2018-01-08T02:00:41.229Z,1031.88
2018-01-08T02:00:41.828Z,1031.90
2018-01-08T02:00:42.447Z,1031.89
2018-01-08T02:00:43.027Z,1031.90
2018-01-08T02:00:43.628Z,1031.88
2018-01-08T02:00:44.227Z,1031.86
2018-01-08T02:00:44.833Z,1031.90
2018-01-08T02:01:39.307Z,1031.90
2018-01-08T02:01:39.903Z,1031.89
2018-01-08T02:01:40.504Z,1031.91
2018-01-08T02:01:41.104Z,1031.91
2018-01-08T02:01:41.705Z,1031.90
2018-01-08T02:01:42.304Z,1031.88
2018-01-08T02:01:42.903Z,1031.91
2018-01-08T02:01:43.508Z,1031.91
2018-01-08T02:02:36.958Z,1031.99
2018-01-08T02:02:37.556Z,1031.92
2018-01-08T02:02:38.158Z,1031.94
2018-01-08T02:02:38.755Z,1031.95
2018-01-08T02:02:39.355Z,1031.97
2018-01-08T02:02:39.954Z,1031.94
2018-01-08T02:02:40.557Z,1031.98
2018-01-08T02:02:41.155Z,1031.93
2018-01-08T02:03:35.633Z,1031.95
2018-01-08T02:03:36.231Z,1031.93
2018-01-08T02:03:36.831Z,1031.94
2018-01-08T02:03:37.430Z,1031.95
2018-01-08T02:03:38.031Z,1031.97
2018-01-08T02:03:38.629Z,1031.95
2018-01-08T02:03:39.230Z,1031.91
2018-01-08T02:03:39.831Z,1031.95
2018-01-08T02:04:34.311Z,1031.96
2018-01-08T02:04:34.908Z,1031.95
2018-01-08T02:04:35.507Z,1031.97
2018-01-08T02:04:36.107Z,1031.98
2018-01-08T02:04:36.707Z,1031.97
2018-01-08T02:04:37.310Z,1031.97
2018-01-08T02:04:37.905Z,1031.97
2018-01-08T02:04:38.505Z,1031.95
2018-01-08T02:05:31.963Z,1031.99
2018-01-08T02:05:32.558Z,1031.98
2018-01-08T02:05:33.159Z,1032.00
2018-01-08T02:05:33.758Z,1032.00
2018-01-08T02:05:34.361Z,1031.96
2018-01-08T02:05:34.959Z,1031.95
2018-01-08T02:05:35.558Z,1031.93
2018-01-08T02:05:36.158Z,1031.98
2018-01-08T02:06:29.644Z,1032.01
2018-01-08T02:06:30.212Z,1031.99
2018-01-08T02:06:30.810Z,1031.99
2018-01-08T02:06:31.410Z,1032.00
2018-01-08T02:06:32.012Z,1032.00
2018-01-08T02:06:32.611Z,1031.98
2018-01-08T02:06:33.209Z,1031.99
2018-01-08T02:06:33.810Z,1031.94
2018-01-08T02:07:27.267Z,1031.96
2018-01-08T02:07:27.862Z,1031.94
2018-01-08T02:07:28.461Z,1031.94
2018-01-08T02:07:29.061Z,1031.96
2018-01-08T02:07:29.664Z,1031.98
2018-01-08T02:07:30.262Z,1031.96
2018-01-08T02:07:30.862Z,1031.98
2018-01-08T02:07:31.462Z,1032.03
2018-01-08T02:08:25.940Z,1032.02
2018-01-08T02:08:26.543Z,1032.02
2018-01-08T02:08:27.140Z,1031.99
2018-01-08T02:08:27.736Z,1032.04
2018-01-08T02:08:28.338Z,1032.02
2018-01-08T02:08:28.954Z,1032.00
2018-01-08T02:08:29.535Z,1032.04
2018-01-08T02:08:30.135Z,1032.01
2018-01-08T02:09:23.594Z,1032.01
2018-01-08T02:09:24.190Z,1031.97
2018-01-08T02:09:24.789Z,1031.98
2018-01-08T02:09:25.390Z,1032.00
2018-01-08T02:09:25.988Z,1031.99
2018-01-08T02:09:26.588Z,1031.99
2018-01-08T02:09:27.188Z,1032.01
2018-01-08T02:09:27.787Z,1032.04
2018-01-08T02:10:22.269Z,1032.00
2018-01-08T02:10:22.864Z,1032.00
2018-01-08T02:10:23.465Z,1031.99
2018-01-08T02:10:24.064Z,1031.98
2018-01-08T02:10:24.669Z,1031.96
2018-01-08T02:10:25.265Z,1031.99
2018-01-08T02:10:25.865Z,1032.00
2018-01-08T02:10:26.466Z,1032.02
2018-01-08T02:11:19.921Z,1032.00
2018-01-08T02:11:20.517Z,1031.98
2018-01-08T02:11:21.119Z,1032.04
2018-01-08T02:11:21.717Z,1032.02
2018-01-08T02:11:22.317Z,1032.02
2018-01-08T02:11:22.918Z,1032.06
2018-01-08T02:11:23.517Z,1031.99
2018-01-08T02:11:24.117Z,1032.00
2018-01-08T02:12:17.607Z,1032.04
2018-01-08T02:12:18.170Z,1032.04
2018-01-08T02:12:18.768Z,1032.04
2018-01-08T02:12:19.367Z,1032.01
2018-01-08T02:12:19.982Z,1032.01
2018-01-08T02:12:20.568Z,1032.03
2018-01-08T02:12:21.168Z,1032.01
2018-01-08T02:12:21.772Z,1032.02
2018-01-08T02:13:16.248Z,1032.00
2018-01-08T02:13:16.844Z,1032.03
2018-01-08T02:13:17.444Z,1032.01
2018-01-08T02:13:18.047Z,1032.05
2018-01-08T02:13:18.643Z,1032.03
2018-01-08T02:13:19.243Z,1032.02
2018-01-08T02:13:19.842Z,1032.00
2018-01-08T02:13:20.443Z,1032.00
2018-01-08T02:14:13.900Z,1031.99
2018-01-08T02:14:14.495Z,1032.04
2018-01-08T02:14:15.115Z,1032.04
2018-01-08T02:14:15.695Z,1032.03
2018-01-08T02:14:16.296Z,1032.01
2018-01-08T02:14:16.896Z,1032.03
2018-01-08T02:14:17.495Z,1032.01
2018-01-08T02:14:18.094Z,1032.03
2018-01-08T02:15:12.577Z,1032.07
2018-01-08T02:15:13.176Z,1032.06
2018-01-08T02:15:13.771Z,1032.05
2018-01-08T02:15:14.371Z,1032.07
2018-01-08T02:15:14.977Z,1032.03
2018-01-08T02:15:15.570Z,1032.00
2018-01-08T02:15:16.170Z,1032.01
2018-01-08T02:15:16.770Z,1032.04
2018-01-08T02:16:11.311Z,1032.03
2018-01-08T02:16:11.847Z,1032.05
2018-01-08T02:16:12.448Z,1032.03
2018-01-08T02:16:13.046Z,1032.04
2018-01-08T02:16:13.645Z,1032.05
2018-01-08T02:16:14.245Z,1032.05
2018-01-08T02:16:14.846Z,1032.06
2018-01-08T02:16:15.448Z,1032.07
2018-01-08T02:17:08.903Z,1032.03
2018-01-08T02:17:09.501Z,1032.01
2018-01-08T02:17:10.100Z,1032.03
2018-01-08T02:17:10.699Z,1032.09
2018-01-08T02:17:11.299Z,1032.04
2018-01-08T02:17:11.900Z,1032.06
2018-01-08T02:17:12.499Z,1032.04
2018-01-08T02:17:13.103Z,1032.06
2018-01-08T02:18:06.587Z,1032.04
2018-01-08T02:18:07.150Z,1032.04
2018-01-08T02:18:07.751Z,1032.05
2018-01-08T02:18:08.375Z,1032.06
2018-01-08T02:18:08.951Z,1032.00
2018-01-08T02:18:09.549Z,1032.04
2018-01-08T02:18:10.150Z,1032.03
2018-01-08T02:18:10.750Z,1032.04
2018-01-08T02:19:05.229Z,1032.06
2018-01-08T02:19:05.883Z,1032.06
2018-01-08T02:19:06.426Z,1032.04
2018-01-08T02:19:07.026Z,1032.04
2018-01-08T02:19:07.625Z,1032.04
2018-01-08T02:19:08.224Z,1032.05
2018-01-08T02:19:08.825Z,1032.06
2018-01-08T02:19:09.425Z,1032.05
2018-01-08T02:20:03.907Z,1032.06
2018-01-08T02:20:04.502Z,1032.06
2018-01-08T02:20:05.101Z,1032.03
2018-01-08T02:20:05.701Z,1032.05
2018-01-08T02:20:06.302Z,1032.03
2018-01-08T02:20:06.902Z,1032.03
2018-01-08T02:20:07.500Z,1032.09
2018-01-08T02:20:08.101Z,1032.06
2018-01-08T02:21:02.582Z,1032.05
2018-01-08T02:21:03.176Z,1032.07
2018-01-08T02:21:03.778Z,1032.06
2018-01-08T02:21:04.377Z,1032.05
2018-01-08T02:21:04.976Z,1032.06
2018-01-08T02:21:05.576Z,1032.04
2018-01-08T02:21:06.175Z,1032.06
2018-01-08T02:21:06.776Z,1032.06
2018-01-08T02:22:01.258Z,1032.13
2018-01-08T02:22:01.852Z,1032.07
2018-01-08T02:22:02.453Z,1032.08
2018-01-08T02:22:03.054Z,1032.09
2018-01-08T02:22:03.653Z,1032.08
2018-01-08T02:22:04.252Z,1032.14
2018-01-08T02:22:04.852Z,1032.08
2018-01-08T02:22:05.454Z,1032.12
2018-01-08T02:22:59.932Z,1032.08
2018-01-08T02:23:00.533Z,1032.08
2018-01-08T02:23:01.128Z,1032.12
2018-01-08T02:23:01.728Z,1032.06
2018-01-08T02:23:02.328Z,1032.04
2018-01-08T02:23:02.926Z,1032.05
2018-01-08T02:23:03.528Z,1032.07
2018-01-08T02:23:04.128Z,1032.10
2018-01-08T02:23:58.701Z,1032.06
2018-01-08T02:23:59.205Z,1032.06
2018-01-08T02:23:59.803Z,1032.05
2018-01-08T02:24:00.404Z,1032.07
2018-01-08T02:24:01.005Z,1032.05
2018-01-08T02:24:01.606Z,1032.07
2018-01-08T02:24:02.202Z,1032.06
2018-01-08T02:24:02.804Z,1032.03
2018-01-08T02:24:58.820Z,1032.09
2018-01-08T02:24:59.416Z,1032.06
2018-01-08T02:25:00.017Z,1032.06
2018-01-08T02:25:00.615Z,1032.12
2018-01-08T02:25:01.214Z,1032.09
2018-01-08T02:25:01.817Z,1032.05
2018-01-08T02:25:56.779Z,1032.03
2018-01-08T02:25:57.376Z,1032.04
2018-01-08T02:25:57.975Z,1032.03
2018-01-08T02:25:58.574Z,1032.02
2018-01-08T02:25:59.175Z,1032.03
2018-01-08T02:25:59.774Z,1032.04
2018-01-08T02:26:00.373Z,1032.04
2018-01-08T02:26:00.974Z,1032.03
2018-01-08T02:26:54.940Z,1032.10
2018-01-08T02:26:55.538Z,1032.05
2018-01-08T02:26:56.139Z,1032.03
2018-01-08T02:26:56.739Z,1032.00
2018-01-08T02:26:57.337Z,1032.04
2018-01-08T02:26:57.937Z,1032.04
2018-01-08T02:26:58.538Z,1032.06
2018-01-08T02:27:51.980Z,1032.05
2018-01-08T02:27:52.577Z,1031.99
2018-01-08T02:27:53.180Z,1032.05
2018-01-08T02:27:53.776Z,1031.99
2018-01-08T02:27:54.376Z,1031.98
2018-01-08T02:27:54.975Z,1032.03
2018-01-08T02:27:55.576Z,1031.98
2018-01-08T02:27:56.177Z,1031.99
2018-01-08T02:28:50.151Z,1032.05
2018-01-08T02:28:50.740Z,1032.02
2018-01-08T02:28:51.338Z,1032.04
2018-01-08T02:28:51.939Z,1032.03
2018-01-08T02:28:52.538Z,1032.06
2018-01-08T02:28:53.138Z,1032.05
2018-01-08T02:28:53.738Z,1032.04
2018-01-08T02:29:48.238Z,1032.03
2018-01-08T02:29:48.800Z,1032.02
2018-01-08T02:29:49.400Z,1032.05
2018-01-08T02:29:50.010Z,1032.01
2018-01-08T02:29:50.599Z,1032.02
2018-01-08T02:29:51.200Z,1032.05
2018-01-08T02:29:51.799Z,1032.03
2018-01-08T02:29:52.402Z,1031.98
2018-01-08T02:30:47.392Z,1032.01
2018-01-08T02:30:47.987Z,1031.97
2018-01-08T02:30:48.588Z,1031.98
2018-01-08T02:30:49.187Z,1031.99
2018-01-08T02:30:49.792Z,1031.96
2018-01-08T02:30:50.388Z,1032.00
2018-01-08T02:30:50.986Z,1031.98
2018-01-08T02:31:45.458Z,1032.01
2018-01-08T02:31:46.049Z,1031.99
2018-01-08T02:31:46.648Z,1032.04
2018-01-08T02:31:47.252Z,1031.99
2018-01-08T02:31:47.848Z,1031.97
2018-01-08T02:31:48.450Z,1031.98
2018-01-08T02:31:49.048Z,1031.96
2018-01-08T02:31:49.651Z,1032.02
2018-01-08T02:32:43.104Z,1031.99
2018-01-08T02:32:43.702Z,1031.97
2018-01-08T02:32:44.302Z,1032.01
2018-01-08T02:32:44.902Z,1031.99
2018-01-08T02:32:45.502Z,1031.99
2018-01-08T02:32:46.105Z,1031.97
2018-01-08T02:32:46.701Z,1031.98
2018-01-08T02:32:47.302Z,1031.99
2018-01-08T02:33:40.757Z,1031.95
2018-01-08T02:33:41.353Z,1031.95
2018-01-08T02:33:41.953Z,1031.93
2018-01-08T02:33:42.554Z,1031.94
2018-01-08T02:33:43.152Z,1031.95
2018-01-08T02:33:43.755Z,1031.95
2018-01-08T02:33:44.366Z,1031.96
2018-01-08T02:33:44.954Z,1031.95
2018-01-08T02:51:45.314Z,1031.89
2018-01-08T02:51:45.877Z,1031.87
2018-01-08T02:51:46.475Z,1031.89
2018-01-08T02:51:47.075Z,1031.85
2018-01-08T02:51:47.676Z,1031.85
2018-01-08T02:51:48.275Z,1031.87
2018-01-08T02:51:48.875Z,1031.88
2018-01-08T02:51:49.475Z,1031.91
2018-01-08T02:52:42.932Z,1031.91
2018-01-08T02:52:43.528Z,1031.87
2018-01-08T02:52:44.127Z,1031.90
2018-01-08T02:52:44.781Z,1031.91
2018-01-08T02:52:45.326Z,1031.86
2018-01-08T02:52:45.927Z,1031.89
2018-01-08T02:52:46.528Z,1031.88
2018-01-08T02:52:47.124Z,1031.89
2018-01-08T02:53:41.606Z,1031.90
2018-01-08T02:53:42.204Z,1031.85
2018-01-08T02:53:42.803Z,1031.88
2018-01-08T02:53:43.403Z,1031.87
2018-01-08T02:53:44.011Z,1031.84
2018-01-08T02:53:44.602Z,1031.88
2018-01-08T02:53:45.202Z,1031.87
2018-01-08T02:53:45.803Z,1031.90
2018-01-08T02:54:40.283Z,1031.91
2018-01-08T02:54:40.888Z,1031.89
2018-01-08T02:54:41.478Z,1031.93
2018-01-08T02:54:42.079Z,1031.91
2018-01-08T02:54:42.678Z,1031.89
2018-01-08T02:54:43.279Z,1031.86
2018-01-08T02:54:43.878Z,1031.89
2018-01-08T02:54:44.478Z,1031.85
2018-01-08T02:55:38.959Z,1031.90
2018-01-08T02:55:39.556Z,1031.86
2018-01-08T02:55:40.156Z,1031.81
2018-01-08T02:55:40.754Z,1031.88
2018-01-08T02:55:41.356Z,1031.83
2018-01-08T02:55:41.955Z,1031.87
2018-01-08T02:55:42.556Z,1031.87
2018-01-08T02:55:43.153Z,1031.88
2018-01-08T02:56:37.638Z,1031.91
2018-01-08T02:56:38.232Z,1031.89
2018-01-08T02:56:38.831Z,1031.89
2018-01-08T02:56:39.433Z,1031.87
2018-01-08T02:56:40.032Z,1031.88
2018-01-08T02:56:40.631Z,1031.88
2018-01-08T02:56:41.231Z,1031.90
2018-01-08T02:56:41.830Z,1031.89
2018-01-08T02:57:35.320Z,1031.90
2018-01-08T02:57:35.883Z,1031.88
2018-01-08T02:57:36.484Z,1031.86
2018-01-08T02:57:37.083Z,1031.90
2018-01-08T02:57:37.683Z,1031.87
2018-01-08T02:57:38.284Z,1031.84
2018-01-08T02:57:38.883Z,1031.86
2018-01-08T02:57:39.483Z,1031.85
2018-01-08T02:58:32.938Z,1031.86
2018-01-08T02:58:33.537Z,1031.84
2018-01-08T02:58:34.138Z,1031.83
2018-01-08T02:58:34.737Z,1031.87
2018-01-08T02:58:35.335Z,1031.82
2018-01-08T02:58:35.937Z,1031.88
2018-01-08T02:58:36.536Z,1031.81
2018-01-08T02:58:37.134Z,1031.85
2018-01-08T02:59:32.127Z,1031.89
2018-01-08T02:59:32.724Z,1031.90
2018-01-08T02:59:33.324Z,1031.88
2018-01-08T02:59:33.922Z,1031.86
2018-01-08T02:59:34.522Z,1031.86
2018-01-08T02:59:35.122Z,1031.88
2018-01-08T02:59:35.721Z,1031.87
2018-01-08T03:00:30.187Z,1031.88
2018-01-08T03:00:30.785Z,1031.89
2018-01-08T03:00:31.384Z,1031.88
2018-01-08T03:00:31.984Z,1031.85
2018-01-08T03:00:32.584Z,1031.91
2018-01-08T03:00:33.184Z,1031.87
2018-01-08T03:00:33.783Z,1031.87
2018-01-08T03:00:34.383Z,1031.89
2018-01-08T03:01:28.863Z,1031.87
2018-01-08T03:01:29.460Z,1031.89
2018-01-08T03:01:30.059Z,1031.86
2018-01-08T03:01:30.659Z,1031.89
2018-01-08T03:01:31.260Z,1031.86
2018-01-08T03:01:31.859Z,1031.85
2018-01-08T03:01:32.459Z,1031.83
2018-01-08T03:01:33.059Z,1031.88
2018-01-08T03:02:27.538Z,1031.88
2018-01-08T03:02:28.135Z,1031.89
2018-01-08T03:02:28.738Z,1031.90
2018-01-08T03:02:29.335Z,1031.88
2018-01-08T03:02:29.935Z,1031.90
2018-01-08T03:02:30.535Z,1031.89
2018-01-08T03:02:31.134Z,1031.90
2018-01-08T03:02:31.733Z,1031.88
2018-01-08T03:03:25.224Z,1031.91
2018-01-08T03:03:25.789Z,1031.92
2018-01-08T03:03:26.388Z,1031.92
2018-01-08T03:03:26.987Z,1031.86
2018-01-08T03:03:27.588Z,1031.89
2018-01-08T03:03:28.188Z,1031.87
2018-01-08T03:03:28.787Z,1031.87
2018-01-08T03:03:29.386Z,1031.89
2018-01-08T03:04:22.844Z,1031.89
2018-01-08T03:04:23.440Z,1031.89
2018-01-08T03:04:24.040Z,1031.87
2018-01-08T03:04:24.639Z,1031.88
2018-01-08T03:04:25.239Z,1031.85
2018-01-08T03:04:25.839Z,1031.87
2018-01-08T03:04:26.439Z,1031.90
2018-01-08T03:04:27.045Z,1031.87
2018-01-08T03:05:21.517Z,1031.88
2018-01-08T03:05:22.115Z,1031.88
2018-01-08T03:05:22.715Z,1031.89
2018-01-08T03:05:23.315Z,1031.88
2018-01-08T03:05:23.914Z,1031.87
2018-01-08T03:05:24.514Z,1031.90
2018-01-08T03:05:25.114Z,1031.91
2018-01-08T03:05:25.712Z,1031.90
2018-01-08T03:06:19.173Z,1031.90
2018-01-08T03:06:19.769Z,1031.89
2018-01-08T03:06:20.368Z,1031.89
2018-01-08T03:06:20.967Z,1031.91
2018-01-08T03:06:21.567Z,1031.88
2018-01-08T03:06:22.166Z,1031.87
2018-01-08T03:06:22.766Z,1031.90
2018-01-08T03:06:23.367Z,1031.87
2018-01-08T03:07:16.822Z,1031.91
2018-01-08T03:07:17.420Z,1031.90
2018-01-08T03:07:18.020Z,1031.88
2018-01-08T03:07:18.619Z,1031.87
2018-01-08T03:07:19.219Z,1031.84
2018-01-08T03:07:19.819Z,1031.89
2018-01-08T03:07:20.420Z,1031.89
2018-01-08T03:07:21.020Z,1031.90
2018-01-08T03:08:14.475Z,1031.93
2018-01-08T03:08:15.072Z,1031.93
2018-01-08T03:08:15.671Z,1031.92
2018-01-08T03:08:16.271Z,1031.90
2018-01-08T03:08:16.870Z,1031.88
2018-01-08T03:08:17.469Z,1031.91
2018-01-08T03:08:18.071Z,1031.93
2018-01-08T03:08:18.670Z,1031.90
2018-01-08T03:09:12.160Z,1031.95
2018-01-08T03:09:12.730Z,1031.93
2018-01-08T03:09:13.322Z,1031.94
2018-01-08T03:09:13.921Z,1031.96
2018-01-08T03:09:14.522Z,1031.97
2018-01-08T03:09:15.123Z,1031.96
2018-01-08T03:09:15.722Z,1031.91
2018-01-08T03:09:16.322Z,1031.90
2018-01-08T03:10:10.801Z,1031.93
2018-01-08T03:10:11.397Z,1031.91
2018-01-08T03:10:11.997Z,1031.94
2018-01-08T03:10:12.598Z,1031.92
2018-01-08T03:10:13.197Z,1031.92
2018-01-08T03:10:13.797Z,1031.93
2018-01-08T03:10:14.398Z,1031.95
2018-01-08T03:10:15.008Z,1031.91
2018-01-08T03:11:09.476Z,1031.92
2018-01-08T03:11:10.073Z,1031.96
2018-01-08T03:11:10.674Z,1031.90
2018-01-08T03:11:11.273Z,1031.94
2018-01-08T03:11:11.872Z,1031.90
2018-01-08T03:11:12.473Z,1031.91
2018-01-08T03:11:13.073Z,1031.92
2018-01-08T03:11:13.673Z,1031.92
2018-01-08T03:12:07.128Z,1031.93
2018-01-08T03:12:07.726Z,1031.94
2018-01-08T03:12:08.325Z,1031.93
2018-01-08T03:12:08.924Z,1031.91
2018-01-08T03:12:09.526Z,1031.90
2018-01-08T03:12:10.125Z,1031.97
2018-01-08T03:12:10.728Z,1031.95
2018-01-08T03:12:11.323Z,1031.92
2018-01-08T03:13:04.782Z,1031.97
2018-01-08T03:13:05.377Z,1031.89
2018-01-08T03:13:05.977Z,1031.92
2018-01-08T03:13:06.577Z,1031.93
2018-01-08T03:13:07.177Z,1031.90
2018-01-08T03:13:07.775Z,1031.89
2018-01-08T03:13:08.376Z,1031.87
2018-01-08T03:13:08.976Z,1031.91
2018-01-08T03:14:02.474Z,1031.90
2018-01-08T03:14:03.030Z,1031.93
2018-01-08T03:14:03.629Z,1031.91
2018-01-08T03:14:04.230Z,1031.89
2018-01-08T03:14:04.828Z,1031.93
2018-01-08T03:14:05.428Z,1031.93
2018-01-08T03:14:06.029Z,1031.90
2018-01-08T03:14:06.633Z,1031.92
2018-01-08T03:15:01.135Z,1031.92
2018-01-08T03:15:01.704Z,1031.96
2018-01-08T03:15:02.303Z,1031.93
2018-01-08T03:15:02.901Z,1031.93
2018-01-08T03:15:03.501Z,1031.91
2018-01-08T03:15:04.110Z,1031.92
2018-01-08T03:15:04.702Z,1031.95
2018-01-08T03:15:05.301Z,1031.90
2018-01-08T03:15:59.782Z,1031.94
2018-01-08T03:16:00.380Z,1031.88
2018-01-08T03:16:00.978Z,1031.90
2018-01-08T03:16:01.579Z,1031.92
2018-01-08T03:16:02.179Z,1031.88
2018-01-08T03:16:02.778Z,1031.88
2018-01-08T03:16:03.378Z,1031.88
2018-01-08T03:16:03.980Z,1031.94
2018-01-08T03:16:58.458Z,1031.90
2018-01-08T03:16:59.056Z,1031.90
2018-01-08T03:16:59.655Z,1031.90
2018-01-08T03:17:00.254Z,1031.89
2018-01-08T03:17:00.861Z,1031.93
2018-01-08T03:17:01.455Z,1031.90
2018-01-08T03:17:02.055Z,1031.88
2018-01-08T03:17:02.655Z,1031.90
2018-01-08T03:17:56.112Z,1031.90
2018-01-08T03:17:56.709Z,1031.89
2018-01-08T03:17:57.308Z,1031.93
2018-01-08T03:17:57.908Z,1031.91
2018-01-08T03:17:58.509Z,1031.94
2018-01-08T03:17:59.107Z,1031.95
2018-01-08T03:17:59.710Z,1031.90
2018-01-08T03:18:00.307Z,1031.89
2018-01-08T03:18:54.786Z,1031.93
2018-01-08T03:18:55.383Z,1031.91
2018-01-08T03:18:55.984Z,1031.93
2018-01-08T03:18:56.583Z,1031.92
2018-01-08T03:18:57.182Z,1031.90
2018-01-08T03:18:57.784Z,1031.90
2018-01-08T03:18:58.381Z,1031.90
2018-01-08T03:18:58.982Z,1031.92
2018-01-08T03:19:53.494Z,1031.92
2018-01-08T03:19:54.061Z,1031.90
2018-01-08T03:19:54.657Z,1031.94
2018-01-08T03:19:55.258Z,1031.88
2018-01-08T03:19:55.859Z,1031.90
2018-01-08T03:19:56.457Z,1031.92
2018-01-08T03:19:57.056Z,1031.93
2018-01-08T03:19:57.658Z,1031.93
2018-01-08T03:20:51.112Z,1031.92
2018-01-08T03:20:51.711Z,1031.95
2018-01-08T03:20:52.311Z,1031.91
2018-01-08T03:20:52.912Z,1031.91
2018-01-08T03:20:53.511Z,1031.94
2018-01-08T03:20:54.110Z,1031.93
2018-01-08T03:20:54.710Z,1031.93
2018-01-08T03:20:55.313Z,1031.90
2018-01-08T03:21:49.789Z,1031.94
2018-01-08T03:21:50.387Z,1031.95
2018-01-08T03:21:50.985Z,1031.94
2018-01-08T03:21:51.587Z,1031.94
2018-01-08T03:21:52.184Z,1031.91
2018-01-08T03:21:52.786Z,1031.88
2018-01-08T03:21:53.384Z,1031.90
2018-01-08T03:21:53.985Z,1031.92
2018-01-08T03:22:48.464Z,1031.88
2018-01-08T03:22:49.062Z,1031.91
2018-01-08T03:22:49.660Z,1031.93
2018-01-08T03:22:50.261Z,1031.92